Time;durP1;ratioP1;P1;durP2;ratioP2;P2;SDS_P1;SDS_P2;PMS_P1;PMS_P2;Temp;Humidity;BMP_temperature;BMP_pressure;BME280_temperature;BME280_humidity;BME280_pressure;Samples;Min_cycle;Max_cycle;Signal;HPM_P1;HPM_P2
2022/10/06 00:01:20;;;;;;;12.33;3.10;;;;;;;11.76;100.00;102000.78;5263602;28;20024;-73
2022/10/06 00:03:52;;;;;;;7.80;2.77;;;;;;;11.71;100.00;102002.53;5263520;28;20545;-73
2022/10/06 00:06:23;;;;;;;9.17;2.43;;;;;;;11.73;100.00;102008.63;5261233;28;20041;-73
2022/10/06 00:08:55;;;;;;;9.50;2.40;;;;;;;11.78;100.00;102017.31;5245398;28;20036;-72
2022/10/06 00:11:26;;;;;;;9.80;2.93;;;;;;;11.78;100.00;102020.78;5262931;28;20025;-73
2022/10/06 00:13:58;;;;;;;10.80;2.47;;;;;;;11.77;100.00;102028.63;5262965;28;20111;-73
2022/10/06 00:16:29;;;;;;;17.10;2.83;;;;;;;11.76;100.00;102032.13;5261693;28;20049;-73
2022/10/06 00:19:00;;;;;;;7.93;2.47;;;;;;;11.75;100.00;102046.03;5263027;28;20539;-73
2022/10/06 00:21:32;;;;;;;10.93;2.77;;;;;;;11.73;100.00;102042.56;5261321;28;20135;-73
2022/10/06 00:24:03;;;;;;;13.57;2.53;;;;;;;11.72;100.00;102040.81;5261432;28;20192;-72
2022/10/06 00:26:35;;;;;;;12.73;3.10;;;;;;;11.65;100.00;102043.41;5262749;28;20041;-73
2022/10/06 00:29:06;;;;;;;11.30;2.87;;;;;;;11.65;100.00;102053.84;5262852;28;20033;-72
2022/10/06 00:31:38;;;;;;;12.17;2.50;;;;;;;11.59;100.00;102061.69;5261489;28;20036;-73
2022/10/06 00:34:09;;;;;;;11.63;3.70;;;;;;;11.57;100.00;102059.94;5261552;28;20037;-73
2022/10/06 00:36:40;;;;;;;13.70;2.90;;;;;;;11.57;100.00;102068.63;5261615;28;20072;-73
2022/10/06 00:39:12;;;;;;;12.53;2.57;;;;;;;11.58;100.00;102078.22;5263022;28;20036;-72
2022/10/06 00:41:43;;;;;;;11.03;2.47;;;;;;;11.59;100.00;102069.53;5262737;28;20032;-73
2022/10/06 00:44:14;;;;;;;11.37;2.97;;;;;;;11.58;100.00;102073.00;5262317;28;20028;-73
2022/10/06 00:46:52;;;;;;;8.93;2.60;;;;;;;11.60;100.00;102080.84;5263259;28;20029;-72
2022/10/06 00:49:33;;;;;;;8.73;2.88;;;;;;;11.58;100.00;102078.22;5262635;28;20033;-72
2022/10/06 00:52:07;;;;;;;9.75;2.20;;;;;;;11.54;100.00;102088.63;5262966;28;20452;-73
2022/10/06 00:54:39;;;;;;;10.93;2.35;;;;;;;11.62;100.00;102092.16;5262311;28;20041;-72
2022/10/06 00:57:11;;;;;;;9.07;1.95;;;;;;;11.58;100.00;102087.81;5262279;28;20029;-73
2022/10/06 00:59:42;;;;;;;12.10;2.43;;;;;;;11.53;100.00;102093.00;5262552;28;20029;-73
2022/10/06 01:03:01;;;;;;;10.70;3.70;;;;;;;11.51;100.00;102099.94;5262808;28;20131;-73
2022/10/06 01:05:40;;;;;;;11.85;3.28;;;;;;;11.48;100.00;102103.44;5178043;28;20031;-73
2022/10/06 01:08:13;;;;;;;8.15;2.08;;;;;;;11.45;100.00;102105.16;5259639;28;20052;-73
2022/10/06 01:10:44;;;;;;;;;;;;;;;11.41;99.87;102119.03;5261617;28;20112;-73
2022/10/06 01:13:17;;;;;;;9.43;3.38;;;;;;;11.43;99.55;102119.91;5262131;28;20035;-73
2022/10/06 01:15:53;;;;;;;;;;;;;;;11.43;99.15;102131.25;5262482;28;20034;-73
2022/10/06 01:18:28;;;;;;;13.52;3.10;;;;;;;11.42;98.42;102131.25;5265812;28;20005;-74
2022/10/06 01:21:13;;;;;;;11.88;3.05;;;;;;;11.42;97.32;102137.34;5265420;28;20036;-73
2022/10/06 01:23:44;;;;;;;10.70;3.00;;;;;;;11.42;97.35;102142.56;5265072;28;20035;-72
2022/10/06 01:26:18;;;;;;;12.00;2.60;;;;;;;11.45;97.41;102136.50;5266413;28;20037;-72
2022/10/06 01:28:50;;;;;;;12.77;2.72;;;;;;;11.39;97.32;102137.31;5266056;28;20430;-72
2022/10/06 01:31:22;;;;;;;11.37;3.13;;;;;;;11.34;97.30;102146.88;5281649;28;20041;-72
2022/10/06 01:33:54;;;;;;;15.07;4.17;;;;;;;11.29;97.57;102154.66;5266199;28;20037;-72
2022/10/06 01:36:25;;;;;;;10.10;2.78;;;;;;;11.27;97.79;102159.00;5266194;28;20354;-72
2022/10/06 01:38:57;;;;;;;11.37;2.80;;;;;;;11.24;97.96;102158.13;5266146;28;20125;-72
2022/10/06 01:41:29;;;;;;;9.10;2.50;;;;;;;11.17;97.82;102165.00;5248202;28;20075;-72
2022/10/06 01:44:00;;;;;;;9.95;2.67;;;;;;;11.11;98.29;102163.25;5264700;28;20033;-72
2022/10/06 01:46:32;;;;;;;7.73;2.20;;;;;;;11.16;97.41;102171.13;5264766;28;20043;-72
2022/10/06 01:49:03;;;;;;;10.60;3.93;;;;;;;11.10;97.61;102179.75;5264930;28;20033;-72
2022/10/06 01:51:34;;;;;;;12.30;3.33;;;;;;;11.02;97.45;102172.75;5266106;28;20055;-72
2022/10/06 01:54:06;;;;;;;9.37;2.67;;;;;;;11.05;97.28;102183.22;5265536;28;20419;-71
2022/10/06 01:56:37;;;;;;;14.57;3.17;;;;;;;11.03;97.12;102192.75;5265907;28;20040;-72
2022/10/06 01:59:09;;;;;;;14.63;3.40;;;;;;;11.07;96.61;102184.09;5264505;28;20519;-72
2022/10/06 02:01:40;;;;;;;14.77;2.60;;;;;;;11.01;96.90;102190.16;5265722;28;20037;-73
2022/10/06 02:04:12;;;;;;;12.87;3.20;;;;;;;10.97;96.51;102190.09;5264542;28;20040;-73
2022/10/06 02:06:43;;;;;;;16.97;2.70;;;;;;;10.98;96.24;102186.63;5264304;28;20032;-72
2022/10/06 02:09:14;;;;;;;17.73;4.87;;;;;;;10.98;96.33;102184.91;5264352;28;20033;-72
2022/10/06 02:11:46;;;;;;;13.27;2.97;;;;;;;10.94;96.31;102194.41;5264278;28;20029;-72
2022/10/06 02:14:17;;;;;;;10.10;2.80;;;;;;;10.93;96.29;102194.41;5264539;28;20041;-72
2022/10/06 02:16:49;;;;;;;19.70;4.80;;;;;;;10.90;95.79;102197.88;5265105;28;20365;-72
2022/10/06 02:19:20;;;;;;;10.38;3.00;;;;;;;10.89;96.19;102205.69;5264220;28;20472;-72
2022/10/06 02:21:52;;;;;;;11.97;3.53;;;;;;;10.88;96.24;102203.94;5264987;28;20052;-73
2022/10/06 02:24:23;;;;;;;18.83;3.73;;;;;;;10.79;96.47;102207.34;5280589;28;20559;-73
2022/10/06 02:26:55;;;;;;;12.03;2.87;;;;;;;10.85;96.24;102223.06;5263935;28;20542;-73
2022/10/06 02:29:26;;;;;;;12.77;2.77;;;;;;;10.79;96.78;102228.22;5263426;28;20033;-73
2022/10/06 02:31:57;;;;;;;11.03;2.80;;;;;;;10.77;96.80;102230.81;5265175;28;20082;-73
2022/10/06 02:34:29;;;;;;;13.03;3.07;;;;;;;10.73;97.58;102233.38;5247227;28;20037;-73
2022/10/06 02:37:00;;;;;;;11.33;3.50;;;;;;;10.69;97.56;102226.34;5263700;28;20033;-73
2022/10/06 02:39:31;;;;;;;14.17;5.07;;;;;;;10.69;97.78;102231.56;5263735;28;20029;-74
2022/10/06 02:42:04;;;;;;;13.50;3.60;;;;;;;10.66;98.11;102231.53;5264170;28;20488;-73
2022/10/06 02:44:35;;;;;;;14.55;3.47;;;;;;;10.63;98.17;102236.75;5264843;28;20468;-73
2022/10/06 02:47:13;;;;;;;23.30;4.53;;;;;;;10.61;98.47;102246.28;5264603;28;20031;-73
2022/10/06 02:49:45;;;;;;;14.02;3.22;;;;;;;10.55;98.82;102250.56;5265108;28;20392;-74
2022/10/06 02:52:16;;;;;;;15.67;3.37;;;;;;;10.51;99.00;102253.13;5247164;28;20098;-73
2022/10/06 02:54:49;;;;;;;17.43;3.70;;;;;;;10.50;99.09;102252.25;5264345;28;20063;-73
2022/10/06 02:57:20;;;;;;;14.27;3.15;;;;;;;10.50;98.90;102262.69;5265407;28;20487;-74
2022/10/06 02:59:52;;;;;;;20.53;4.63;;;;;;;10.44;99.14;102264.34;5264604;28;20029;-73
2022/10/06 03:02:23;;;;;;;16.93;3.43;;;;;;;10.39;99.43;102264.28;5264883;28;20082;-73
2022/10/06 03:04:55;;;;;;;14.63;3.30;;;;;;;10.33;99.83;102272.03;5264682;28;20175;-73
2022/10/06 03:07:26;;;;;;;12.57;3.83;;;;;;;10.27;100.00;102277.13;5264431;28;20032;-73
2022/10/06 03:09:57;;;;;;;12.23;2.80;;;;;;;10.33;100.00;102285.06;5264940;28;20052;-73
2022/10/06 03:12:29;;;;;;;12.53;2.67;;;;;;;10.29;100.00;102299.78;5263135;28;20029;-73
2022/10/06 03:15:01;;;;;;;18.60;3.22;;;;;;;10.21;100.00;102298.78;5263288;28;20423;-73
2022/10/06 03:17:32;;;;;;;17.43;4.17;;;;;;;10.20;100.00;102291.81;5264187;28;20150;-73
2022/10/06 03:20:04;;;;;;;15.37;2.90;;;;;;;10.14;100.00;102300.47;5264132;28;20037;-73
2022/10/06 03:22:35;;;;;;;15.80;3.63;;;;;;;10.13;100.00;102306.50;5263543;28;20107;-73
2022/10/06 03:25:08;;;;;;;13.13;3.23;;;;;;;10.08;100.00;102305.56;5262827;28;20029;-73
2022/10/06 03:27:39;;;;;;;11.25;4.00;;;;;;;10.08;100.00;102302.06;5263582;28;20047;-73
2022/10/06 03:30:11;;;;;;;9.90;2.83;;;;;;;10.01;100.00;102298.50;5263088;28;20368;-73
2022/10/06 03:32:42;;;;;;;13.80;3.17;;;;;;;10.00;100.00;102304.59;5262673;28;20021;-73
2022/10/06 03:35:14;;;;;;;14.13;3.13;;;;;;;9.98;100.00;102312.38;5262527;28;20032;-73
2022/10/06 03:37:45;;;;;;;13.67;3.17;;;;;;;10.00;100.00;102320.22;5264066;28;20044;-73
2022/10/06 03:40:16;;;;;;;15.97;4.23;;;;;;;9.98;100.00;102324.53;5263480;28;20059;-73
2022/10/06 03:42:48;;;;;;;12.33;2.60;;;;;;;9.91;100.00;102323.56;5263730;28;20036;-73
2022/10/06 03:45:19;;;;;;;10.13;3.03;;;;;;;9.91;100.00;102327.91;5262394;28;20043;-72
2022/10/06 03:47:52;;;;;;;19.63;4.07;;;;;;;9.83;100.00;102336.47;5262658;28;20037;-73
2022/10/06 03:50:23;;;;;;;19.60;4.60;;;;;;;9.79;100.00;102334.69;5262448;28;20124;-73
2022/10/06 03:52:55;;;;;;;20.57;3.77;;;;;;;9.81;100.00;102348.59;5263546;28;20116;-73
2022/10/06 03:55:26;;;;;;;16.07;3.53;;;;;;;9.78;100.00;102345.06;5263575;28;20392;-73
2022/10/06 03:57:57;;;;;;;26.53;4.37;;;;;;;9.79;100.00;102349.44;5264209;28;20024;-73
2022/10/06 04:00:29;;;;;;;20.30;3.77;;;;;;;9.78;100.00;102353.75;5262122;28;20024;-73
2022/10/06 04:03:00;;;;;;;14.47;3.57;;;;;;;9.78;100.00;102363.31;5263105;28;20025;-72
2022/10/06 04:05:32;;;;;;;19.57;4.57;;;;;;;9.73;100.00;102355.41;5263865;28;20032;-74
2022/10/06 04:08:03;;;;;;;16.77;3.70;;;;;;;9.74;100.00;102375.41;5263489;28;20420;-74
2022/10/06 04:10:34;;;;;;;11.83;2.93;;;;;;;9.68;100.00;102375.31;5263220;28;20063;-73
2022/10/06 04:13:06;;;;;;;18.67;3.80;;;;;;;9.60;100.00;102374.31;5261971;28;20029;-73
2022/10/06 04:15:37;;;;;;;13.63;4.37;;;;;;;9.60;100.00;102379.50;5261804;28;20033;-73
2022/10/06 04:18:08;;;;;;;17.93;4.17;;;;;;;9.56;100.00;102385.50;5262849;28;20029;-73
2022/10/06 04:20:40;;;;;;;16.97;3.73;;;;;;;9.52;100.00;102383.72;5261810;28;20032;-73
2022/10/06 04:23:12;;;;;;;19.67;4.17;;;;;;;9.52;100.00;102394.13;5263728;28;20049;-72
2022/10/06 04:25:43;;;;;;;18.93;3.77;;;;;;;9.48;100.00;102388.88;5262860;28;20033;-73
2022/10/06 04:28:14;;;;;;;17.53;4.90;;;;;;;9.43;100.00;102398.28;5261758;28;20044;-72
2022/10/06 04:30:55;;;;;;;16.77;4.10;;;;;;;9.41;100.00;102405.19;5263306;28;20032;-72
2022/10/06 04:33:27;;;;;;;17.77;5.60;;;;;;;9.38;100.00;102405.16;5245076;28;20047;-72
2022/10/06 04:36:05;;;;;;;17.98;3.78;;;;;;;9.33;100.00;102406.78;5261376;28;20534;-72
2022/10/06 04:38:36;;;;;;;19.85;4.13;;;;;;;9.30;100.00;102404.13;5262931;28;20485;-73
2022/10/06 04:41:14;;;;;;;16.70;3.80;;;;;;;9.26;100.00;102413.63;5263044;28;20033;-72
2022/10/06 04:43:46;;;;;;;18.95;4.18;;;;;;;9.30;100.00;102419.75;5262636;28;20423;-73
2022/10/06 04:46:19;;;;;;;19.33;4.60;;;;;;;9.24;100.00;102417.03;5263296;28;20468;-72
2022/10/06 04:48:52;;;;;;;18.00;4.70;;;;;;;9.30;100.00;102428.41;5262379;28;20544;-73
2022/10/06 04:51:25;;;;;;;22.98;4.38;;;;;;;9.17;100.00;102431.66;5262947;28;20147;-72
2022/10/06 04:53:56;;;;;;;19.52;4.55;;;;;;;9.17;100.00;102431.66;5269373;28;20050;-72
2022/10/06 04:56:29;;;;;;;17.30;4.53;;;;;;;9.09;100.00;102431.50;5268028;28;20123;-72
2022/10/06 04:59:01;;;;;;;18.13;5.05;;;;;;;9.04;100.00;102432.25;5269224;28;20481;-72
2022/10/06 05:01:34;;;;;;;19.07;4.10;;;;;;;8.99;100.00;102444.31;5269507;28;20102;-73
2022/10/06 05:04:06;;;;;;;19.23;4.57;;;;;;;8.92;100.00;102446.78;5269133;28;20044;-73
2022/10/06 05:06:40;;;;;;;19.73;4.68;;;;;;;8.88;100.00;102450.13;5269277;28;20033;-73
2022/10/06 05:09:14;;;;;;;20.30;5.43;;;;;;;8.91;100.00;102462.34;5269142;28;20113;-71
2022/10/06 05:11:46;;;;;;;22.40;4.63;;;;;;;8.86;100.00;102458.78;5268384;28;20101;-72
2022/10/06 05:14:18;;;;;;;25.50;6.20;;;;;;;8.88;100.00;102467.47;5268197;28;20488;-73
2022/10/06 05:16:49;;;;;;;15.30;4.10;;;;;;;8.82;100.00;102464.75;5269897;28;20067;-72
2022/10/06 05:19:21;;;;;;;25.53;5.00;;;;;;;8.84;100.00;102469.13;5269371;28;20032;-72
2022/10/06 05:21:52;;;;;;;23.43;5.97;;;;;;;8.74;100.00;102461.97;5269205;28;20122;-72
2022/10/06 05:24:23;;;;;;;28.00;4.73;;;;;;;8.70;100.00;102474.03;5268940;28;20041;-72
2022/10/06 05:26:55;;;;;;;20.63;5.00;;;;;;;8.77;100.00;102477.63;5268078;28;20474;-72
2022/10/06 05:29:26;;;;;;;20.97;4.63;;;;;;;8.75;100.00;102488.00;5269275;28;20040;-72
2022/10/06 05:31:57;;;;;;;21.83;3.90;;;;;;;8.72;100.00;102489.66;5268750;28;20444;-72
2022/10/06 05:34:29;;;;;;;19.23;4.00;;;;;;;8.68;100.00;102487.84;5269215;28;20056;-72
2022/10/06 05:37:00;;;;;;;21.47;4.17;;;;;;;8.68;100.00;102491.31;5268339;28;20036;-72
2022/10/06 05:39:32;;;;;;;25.43;4.90;;;;;;;8.68;100.00;102496.53;5268266;28;20037;-71
2022/10/06 05:42:03;;;;;;;23.47;6.23;;;;;;;8.67;100.00;102510.34;5269389;28;20037;-72
2022/10/06 05:44:34;;;;;;;20.30;3.97;;;;;;;8.65;100.00;102506.84;5267571;28;20021;-72
2022/10/06 05:47:06;;;;;;;19.73;4.43;;;;;;;8.67;100.00;102510.34;5269283;28;20468;-72
2022/10/06 05:49:37;;;;;;;19.30;4.30;;;;;;;8.64;100.00;102517.22;5267718;28;20090;-72
2022/10/06 05:52:08;;;;;;;23.27;4.80;;;;;;;8.61;100.00;102525.81;5269250;28;20025;-72
2022/10/06 05:54:40;;;;;;;20.53;5.77;;;;;;;8.60;100.00;102526.66;5250627;28;20033;-72
2022/10/06 05:57:12;;;;;;;16.43;4.10;;;;;;;8.56;100.00;102525.72;5268601;28;20036;-72
2022/10/06 05:59:44;;;;;;;21.67;5.75;;;;;;;8.55;100.00;102526.56;5250937;28;20029;-72
2022/10/06 06:02:16;;;;;;;17.43;4.20;;;;;;;8.54;100.00;102524.78;5269003;28;20541;-72
2022/10/06 06:04:47;;;;;;;22.95;3.97;;;;;;;8.52;100.00;102531.69;5266324;28;20021;-72
2022/10/06 06:07:18;;;;;;;19.00;4.33;;;;;;;8.55;100.00;102538.69;5265097;28;20056;-72
2022/10/06 06:09:50;;;;;;;22.93;4.57;;;;;;;8.56;100.00;102550.81;5265583;28;20064;-72
2022/10/06 06:12:21;;;;;;;17.70;4.13;;;;;;;8.56;100.00;102545.63;5265180;28;20504;-72
2022/10/06 06:17:42;;;;;;;21.05;5.18;;;;;;;8.54;100.00;102549.91;5265220;28;20037;-72
2022/10/06 06:20:14;;;;;;;23.23;5.20;;;;;;;8.52;100.00;102552.47;5264514;28;20409;-73
2022/10/06 06:22:51;;;;;;;25.67;5.30;;;;;;;8.55;100.00;102555.16;5264761;28;20056;-73
2022/10/06 06:25:22;;;;;;;20.02;5.45;;;;;;;8.56;100.00;102559.53;5265318;28;20402;-73
2022/10/06 06:27:54;;;;;;;23.10;4.20;;;;;;;8.57;100.00;102563.00;5264891;28;20166;-73
2022/10/06 06:30:25;;;;;;;22.25;4.45;;;;;;;8.57;100.00;102563.84;5263584;28;20033;-72
2022/10/06 06:32:59;;;;;;;19.10;4.17;;;;;;;8.65;100.00;102566.66;5246725;28;20102;-73
2022/10/06 06:35:30;;;;;;;18.52;5.28;;;;;;;8.71;100.00;102566.78;5247896;28;20029;-73
2022/10/06 06:38:01;;;;;;;27.07;6.37;;;;;;;8.69;100.00;102568.47;5246958;28;20029;-72
2022/10/06 06:40:33;;;;;;;23.83;5.33;;;;;;;8.75;100.00;102567.75;5246744;28;20047;-72
2022/10/06 06:43:04;;;;;;;22.40;4.30;;;;;;;8.83;100.00;102579.19;5264511;28;20071;-73
2022/10/06 06:45:35;;;;;;;24.20;5.47;;;;;;;8.88;100.00;102595.78;5263299;28;20025;-72
2022/10/06 06:48:14;;;;;;;21.37;5.10;;;;;;;8.91;100.00;102588.03;5246612;28;20063;-72
2022/10/06 06:50:54;;;;;;;22.52;4.80;;;;;;;9.00;100.00;102600.41;5263616;28;20057;-73
2022/10/06 06:53:26;;;;;;;23.50;4.75;;;;;;;9.01;100.00;102596.94;5264729;28;20032;-73
2022/10/06 06:55:57;;;;;;;13.63;4.77;;;;;;;9.05;100.00;102603.13;5264471;28;20069;-73
2022/10/06 06:58:29;;;;;;;18.47;5.07;;;;;;;9.14;100.00;102605.91;5263125;28;20036;-73
2022/10/06 07:01:12;;;;;;;25.88;5.55;;;;;;;9.16;99.66;102612.03;5263510;28;20051;-73
2022/10/06 07:03:44;;;;;;;;;;;;;;;9.23;99.40;102626.06;5263738;28;20399;-73
2022/10/06 07:06:17;;;;;;;24.25;4.32;;;;;;;9.34;99.06;102621.97;5264577;28;19924;-71
2022/10/06 07:08:48;;;;;;;20.92;6.22;;;;;;;9.42;98.62;102629.94;5262848;28;20487;-73
2022/10/06 07:11:24;;;;;;;21.00;4.13;;;;;;;9.46;98.58;102630.03;5264611;28;20025;-71
2022/10/06 07:14:07;;;;;;;23.77;5.97;;;;;;;9.57;97.43;102640.69;5263232;28;20032;-72
2022/10/06 07:25:29;;;;;;;21.08;5.65;;;;;;;9.92;95.81;102656.16;5264056;28;20040;-72
2022/10/06 07:28:01;;;;;;;23.05;5.90;;;;;;;10.03;95.17;102657.25;5264102;28;20033;-72
2022/10/06 07:30:32;;;;;;;22.40;4.77;;;;;;;10.10;94.80;102660.84;5262364;28;20036;-72
2022/10/06 07:33:04;;;;;;;20.30;5.23;;;;;;;10.19;93.85;102668.84;5262471;28;20029;-73
2022/10/06 07:35:37;;;;;;;23.33;4.83;;;;;;;10.25;93.10;102665.47;5263580;28;20047;-72
2022/10/06 07:38:09;;;;;;;22.65;5.93;;;;;;;10.39;93.43;102677.06;5263651;28;20147;-72
2022/10/06 07:40:40;;;;;;;19.37;4.43;;;;;;;10.45;92.82;102676.31;5262273;28;20102;-72
2022/10/06 07:43:11;;;;;;;15.77;4.60;;;;;;;10.55;93.04;102682.56;5245528;28;20465;-72
2022/10/06 07:45:48;;;;;;;26.53;5.07;;;;;;;10.65;92.42;102692.28;5263033;28;20029;-72
2022/10/06 07:48:22;;;;;;;20.08;4.90;;;;;;;10.75;91.38;102690.72;5261920;28;20086;-72
2022/10/06 07:50:53;;;;;;;24.48;5.03;;;;;;;10.85;90.77;102697.88;5263269;28;20179;-72
2022/10/06 07:53:28;;;;;;;15.57;4.27;;;;;;;10.91;89.84;102707.50;5262088;28;20496;-72
2022/10/06 07:56:04;;;;;;;19.00;4.03;;;;;;;11.01;90.25;102698.09;5262855;28;20086;-72
2022/10/06 07:58:36;;;;;;;21.70;5.10;;;;;;;11.06;89.51;102702.56;5261907;28;20033;-72
2022/10/06 08:01:10;;;;;;;21.67;5.25;;;;;;;11.13;88.58;102703.53;5261669;28;20476;-73
2022/10/06 08:03:44;;;;;;;17.27;4.55;;;;;;;11.18;87.72;102701.00;5263283;28;20021;-73
2022/10/06 08:06:17;;;;;;;19.90;4.63;;;;;;;11.30;88.66;102703.75;5262987;28;20506;-72
2022/10/06 08:08:51;;;;;;;17.48;4.53;;;;;;;11.34;87.90;102700.34;5262826;28;20325;-74
2022/10/06 08:11:23;;;;;;;17.92;4.18;;;;;;;11.41;87.33;102719.59;5262278;28;20449;-72
2022/10/06 08:13:54;;;;;;;16.87;4.27;;;;;;;11.44;86.70;102712.69;5262866;28;20040;-72
2022/10/06 08:16:30;;;;;;;18.57;4.23;;;;;;;11.53;86.72;102716.28;5262827;28;20271;-75
2022/10/06 08:19:01;;;;;;;20.25;5.10;;;;;;;11.64;86.31;102725.13;5262752;28;20029;-74
2022/10/06 08:21:37;;;;;;;19.37;4.43;;;;;;;11.75;86.13;102734.03;5262573;28;20468;-74
2022/10/06 08:24:09;;;;;;;17.10;4.60;;;;;;;11.79;85.49;102734.94;5245108;28;20037;-74
2022/10/06 08:26:42;;;;;;;20.20;5.23;;;;;;;11.94;86.15;102742.13;5261929;28;20037;-73
2022/10/06 08:29:14;;;;;;;20.65;5.28;;;;;;;12.00;85.28;102743.09;5262741;28;20272;-74
2022/10/06 08:31:45;;;;;;;22.63;6.03;;;;;;;12.00;84.32;102745.69;5261339;28;20314;-74
2022/10/06 08:34:17;;;;;;;21.47;4.97;;;;;;;12.16;84.02;102741.53;5262010;28;20040;-73
2022/10/06 08:36:49;;;;;;;19.58;6.22;;;;;;;12.24;83.26;102752.09;5261767;28;20021;-71
2022/10/06 08:39:21;;;;;;;20.58;5.97;;;;;;;12.38;82.90;102758.38;5262383;28;20037;-71
2022/10/06 08:41:53;;;;;;;16.63;4.93;;;;;;;12.55;82.52;102760.28;5244489;28;20086;-72
2022/10/06 08:44:31;;;;;;;22.33;4.68;;;;;;;12.64;81.78;102767.34;5244851;28;20025;-73
2022/10/06 08:47:16;;;;;;;17.15;5.03;;;;;;;12.83;82.01;102763.16;5262077;28;20479;-73
2022/10/06 08:49:50;;;;;;;22.15;4.93;;;;;;;12.91;80.09;102765.00;5262372;28;20021;-74
2022/10/06 08:52:32;;;;;;;17.98;4.03;;;;;;;13.08;79.75;102764.28;5261055;28;20423;-74
2022/10/06 08:55:17;;;;;;;14.40;4.35;;;;;;;13.22;78.51;102770.50;5262647;28;20072;-73
2022/10/06 08:58:16;;;;;;;23.13;5.68;;;;;;;13.39;78.57;102775.91;5262959;28;20036;-72
2022/10/06 09:00:48;;;;;;;15.88;4.25;;;;;;;13.44;75.95;102778.56;5261188;28;20367;-71
2022/10/06 09:03:24;;;;;;;14.83;4.37;;;;;;;13.87;77.85;102773.59;5262552;28;20025;-71
2022/10/06 09:06:07;;;;;;;17.83;4.20;;;;;;;14.07;75.23;102784.19;5261615;28;20025;-71
2022/10/06 09:08:52;;;;;;;12.75;3.88;;;;;;;14.35;74.89;102782.53;5262516;28;20547;-71
2022/10/06 09:11:53;;;;;;;13.68;3.92;;;;;;;14.71;74.90;102798.41;5262744;28;20063;-71
2022/10/06 09:14:41;;;;;;;19.20;4.93;;;;;;;14.71;72.58;102793.16;5262220;28;20446;-72
2022/10/06 09:17:27;;;;;;;17.88;4.38;;;;;;;15.08;73.58;102796.69;5262715;28;20039;-73
2022/10/06 09:20:03;;;;;;;18.92;4.15;;;;;;;15.61;70.97;102805.44;5260506;28;20032;-73
2022/10/06 09:22:36;;;;;;;14.18;3.95;;;;;;;15.69;67.04;102816.81;5260566;28;20374;-73
2022/10/06 09:25:13;;;;;;;;;;;;;;;16.08;66.23;102798.34;5261393;28;20343;-72
2022/10/06 09:27:50;;;;;;;15.32;3.65;;;;;;;15.53;65.34;102801.09;5261505;28;19958;-72
2022/10/06 09:30:22;;;;;;;14.73;3.92;;;;;;;15.77;64.10;102801.06;5261043;28;20017;-72
2022/10/06 09:32:59;;;;;;;14.32;3.38;;;;;;;15.95;65.36;102805.41;5261656;28;20037;-73
2022/10/06 09:35:31;;;;;;;14.85;3.83;;;;;;;16.23;63.11;102807.94;5261949;28;20108;-73
2022/10/06 09:38:04;;;;;;;16.58;4.35;;;;;;;16.29;63.84;102825.44;5262382;28;20033;-72
2022/10/06 09:40:54;;;;;;;13.50;4.55;;;;;;;16.80;64.11;102820.81;5264951;28;20078;-73
2022/10/06 09:43:27;;;;;;;16.75;3.80;;;;;;;16.82;61.81;102820.78;5265977;28;20546;-72
2022/10/06 09:46:25;;;;;;;14.02;3.60;;;;;;;16.48;62.18;102826.25;5264495;28;20476;-72
2022/10/06 09:49:10;;;;;;;11.65;4.28;;;;;;;16.43;63.11;102833.31;5265068;28;20132;-73
2022/10/06 09:52:10;;;;;;;16.10;3.80;;;;;;;16.12;62.50;102836.06;5264687;28;20127;-72
2022/10/06 09:54:43;;;;;;;13.73;4.22;;;;;;;16.37;60.97;102831.56;5264655;28;20449;-72
2022/10/06 09:57:19;;;;;;;16.98;4.07;;;;;;;15.91;61.75;102837.00;5265598;28;20068;-72
2022/10/06 09:59:51;;;;;;;13.63;3.47;;;;;;;16.18;60.42;102825.47;5266271;28;20033;-72
2022/10/06 10:02:25;;;;;;;12.13;3.50;;;;;;;16.36;60.47;102835.97;5265679;28;20029;-72
2022/10/06 10:04:57;;;;;;;13.13;3.70;;;;;;;16.08;61.24;102835.16;5264199;28;20460;-72
2022/10/06 10:07:29;;;;;;;13.57;3.20;;;;;;;15.74;61.70;102831.72;5265289;28;20036;-71
2022/10/06 10:10:30;;;;;;;17.70;3.60;;;;;;;16.23;61.71;102827.22;5265278;28;20566;-72
2022/10/06 10:13:01;;;;;;;11.15;3.40;;;;;;;16.36;59.68;102830.69;5248182;28;20048;-72
2022/10/06 10:15:51;;;;;;;12.77;3.87;;;;;;;16.43;59.45;102833.31;5264234;28;20037;-72
2022/10/06 10:18:26;;;;;;;13.80;3.53;;;;;;;17.19;56.59;102831.09;5264991;28;20051;-72
2022/10/06 10:21:09;;;;;;;11.43;3.08;;;;;;;16.95;55.84;102830.38;5265039;28;20467;-72
2022/10/06 10:23:42;;;;;;;;;;;;;;;17.22;55.00;102837.22;5265386;28;20086;-72
2022/10/06 10:26:34;;;;;;;9.48;2.78;;;;;;;17.14;57.56;102836.41;5264118;28;19913;-72
2022/10/06 10:29:35;;;;;;;13.13;3.85;;;;;;;17.79;54.30;102841.09;5264130;28;20553;-71
2022/10/06 10:32:20;;;;;;;10.45;3.45;;;;;;;17.50;54.03;102831.72;5263791;28;20464;-73
2022/10/06 10:34:51;;;;;;;8.55;2.88;;;;;;;17.85;51.68;102836.66;5264879;28;20025;-71
2022/10/06 10:38:04;;;;;;;7.70;2.53;;;;;;;18.20;52.04;102832.75;5264897;28;20017;-71
2022/10/06 10:40:47;;;;;;;9.95;3.45;;;;;;;18.75;49.79;102846.13;5264316;28;20052;-71
2022/10/06 10:43:21;;;;;;;;;;;;;;;19.97;47.35;102841.53;5265646;28;20043;-71
2022/10/06 10:46:01;;;;;;;8.45;2.30;;;;;;;19.40;45.24;102837.22;5264239;28;19948;-71
2022/10/06 10:48:38;;;;;;;8.45;2.90;;;;;;;20.08;44.57;102826.28;5263974;28;20029;-72
2022/10/06 10:51:26;;;;;;;9.60;2.45;;;;;;;20.32;44.74;102827.56;5263665;28;20491;-71
2022/10/06 10:54:29;;;;;;;7.32;3.03;;;;;;;20.61;43.78;102833.09;5263439;28;20037;-71
2022/10/06 10:57:02;;;;;;;19.55;3.58;;;;;;;19.47;43.97;102837.09;5263135;28;20040;-71
2022/10/06 10:59:44;;;;;;;11.13;3.35;;;;;;;19.34;45.23;102843.50;5264830;28;20037;-71
2022/10/06 11:02:19;;;;;;;12.27;3.03;;;;;;;19.64;44.20;102835.91;5264403;28;20499;-72
2022/10/06 11:05:00;;;;;;;9.95;2.58;;;;;;;20.16;44.08;102837.59;5264087;28;20182;-71
2022/10/06 11:07:47;;;;;;;8.63;3.00;;;;;;;20.70;44.09;102841.75;5264458;28;20056;-72
2022/10/06 11:10:23;;;;;;;10.70;3.35;;;;;;;21.15;43.68;102831.88;5264263;28;20464;-71
2022/10/06 11:13:13;;;;;;;11.35;2.85;;;;;;;20.80;42.28;102838.91;5263871;28;20108;-72
2022/10/06 11:16:03;;;;;;;10.88;3.35;;;;;;;21.35;42.69;102852.59;5262795;28;20029;-72
2022/10/06 11:18:42;;;;;;;10.45;2.83;;;;;;;20.80;41.58;102852.16;5263157;28;20403;-72
2022/10/06 11:21:24;;;;;;;12.98;3.60;;;;;;;21.81;42.63;102840.81;5264020;28;20025;-72
2022/10/06 11:24:18;;;;;;;10.85;2.78;;;;;;;23.58;41.02;102847.78;5263223;28;20448;-71
2022/10/06 11:27:16;;;;;;;12.82;3.95;;;;;;;22.99;37.66;102847.06;5262860;28;20099;-71
2022/10/06 11:30:18;;;;;;;13.55;3.90;;;;;;;22.47;39.30;102852.22;5264372;28;20100;-71
2022/10/06 11:33:07;;;;;;;9.67;2.80;;;;;;;21.78;38.25;102838.25;5263551;28;20036;-73
2022/10/06 11:35:43;;;;;;;12.15;3.05;;;;;;;21.72;40.14;102841.06;5263438;28;20024;-71
2022/10/06 11:38:30;;;;;;;14.32;3.85;;;;;;;22.53;39.44;102833.44;5262250;28;20021;-71
2022/10/06 11:41:33;;;;;;;8.60;2.88;;;;;;;22.81;37.24;102840.53;5263865;28;20368;-72
2022/10/06 11:44:15;;;;;;;10.30;3.33;;;;;;;23.57;36.52;102851.38;5263161;28;20059;-73
2022/10/06 11:46:53;;;;;;;9.63;2.92;;;;;;;25.29;37.45;102843.94;5262803;28;20353;-72
2022/10/06 11:49:27;;;;;;;7.75;2.83;;;;;;;24.08;34.06;102842.44;5263530;28;20048;-72
2022/10/06 11:52:04;;;;;;;10.27;3.13;;;;;;;24.78;35.31;102839.81;5261965;28;20468;-73
2022/10/06 11:54:39;;;;;;;12.25;2.95;;;;;;;23.84;35.66;102839.78;5263657;28;20198;-72
2022/10/06 11:57:34;;;;;;;9.23;3.17;;;;;;;24.49;35.71;102839.13;5263076;28;20059;-72
2022/10/06 12:00:14;;;;;;;12.20;3.05;;;;;;;23.91;36.70;102826.22;5252587;28;20040;-73
2022/10/06 12:02:46;;;;;;;8.65;2.85;;;;;;;24.87;33.76;102828.78;5261588;28;20056;-72
2022/10/06 12:05:18;;;;;;;8.73;2.42;;;;;;;25.61;32.82;102825.66;5263104;28;20033;-72
2022/10/06 12:07:55;;;;;;;7.13;2.60;;;;;;;24.05;34.10;102823.91;5262857;28;20037;-72